Terminal Aerodrome Forecast
Issued by NWS

Home | Current Version | Previous Version | Text Only | Print | Product List | Glossary On
Versions: 1 2 3 4 5 6 7 8 9 10 11 12 13 14 15 16 17 18
142
FTUS43 KIND 232320
TAFBMG
TAF
KBMG 232320Z 2400/2424 28008KT P6SM -RA SCT015 OVC050
      TEMPO 2400/2401 4SM -RA BR OVC015
     FM240100 26006KT P6SM SCT050 BKN080
      TEMPO 2404/2408 5SM -RA OVC050
     FM240800 25007KT 6SM BR VCSH BKN040
     FM241000 26008KT P6SM OVC025
      AMD LTD TO CLD VIS AND WIND 2401/2413=

USA.gov is the U.S. government's official web portal to all federal, state and local government web resources and services.